Startpagina
METAR-TAF:

METAR-TAF

Vliegvelden :

Flughafen Dortmund

Dortmund, Duitsland

breedte: 51-31N, lengte: 007-37E, hoogte: 127 m

Actueel weer

Dit bericht is 24 minuten geleden gemaakt, om 23:50 UTC
Wind 2 kt uit het westen
Temperatuur 11°C
Vochtigheid 82%
Druk 1025 hPa
Zicht 10 km of meer

METAR: EDLW 122350Z AUTO 26002KT 9999 // NCD 11/08 Q1025

Tijdstip: 02:14 (00:14 UTC)

Verwachting

Dit bericht is 7 uur en het 14 minuten geleden gemaakt, om 17:00 UTC
Verwachting geldig van 12 om 18 UTC tot 13 om 18 UTC
Wind 9 kt uit het noordwesten
Zicht 10 km of meer
geen wolken onder 1500 m en geen cumulonimbus
Wijzigt naar
van 12 om 19 UTC tot 12 om 22 UTC
Wind 4 kt uit het westen
Wijzigt naar
van 13 om 04 UTC tot 13 om 07 UTC
Wind 5 kt uit het noordnoordwesten

TAF: EDLW 121700Z 1218/1318 31009KT CAVOK BECMG 1219/1222 27004KT BECMG 1304/1307 34005KT

Waarnemingen en weersverwachtingen van meer dan 4000 vliegvelden (METAR en TAF).

De beschikbare stations zijn de gele en rode punten op de kaart.

Ga met uw muis naar het station om de naam te zien.

Klik dan om waarnemingen en weersverwachtingen te zien.

kaart wijzigen: klik op de groene knoppen met een zwart kruis om in te zoomen, op de groene knop met een streepje om uit te zoomen of op de groene pijlen voor aangrenzende kaarten.


METAR-TAF: